Time,TemperatureF,DewpointF,PressureIn,WindDirection,WindDirectionDegrees,WindSpeedMPH,WindSpeedGustMPH,Humidity,HourlyPrecipIn,Conditions,Clouds,dailyrainin,SoftwareType,DateUTC
2013-01-18 00:04:00,30.0,25.0,30.54,SW,226,0.0,0.0,83,0.00,,,0.00,weatherlink.com 1.10,2013-01-18 06:04:00,
2013-01-18 00:19:00,30.0,25.0,30.55,SW,226,0.0,0.0,83,0.00,,,0.00,weatherlink.com 1.10,2013-01-18 06:19:00,
2013-01-18 00:34:00,29.7,25.0,30.55,SSE,154,0.0,0.0,84,0.00,,,0.00,weatherlink.com 1.10,2013-01-18 06:34:00,
2013-01-18 00:49:00,29.1,25.0,30.55,SSE,153,0.0,0.0,84,0.00,,,0.00,weatherlink.com 1.10,2013-01-18 06:49:00,
2013-01-18 01:04:00,28.2,24.0,30.55,SSE,153,0.0,0.0,84,0.00,,,0.00,weatherlink.com 1.10,2013-01-18 07:04:00,
2013-01-18 01:19:00,27.1,24.0,30.55,SSE,154,0.0,0.0,86,0.00,,,0.00,weatherlink.com 1.10,2013-01-18 07:19:00,
2013-01-18 01:34:00,26.5,23.0,30.55,SSE,153,0.0,0.0,86,0.00,,,0.00,weatherlink.com 1.10,2013-01-18 07:34:00,
2013-01-18 01:49:00,26.1,23.0,30.55,SSE,153,0.0,0.0,88,0.00,,,0.00,weatherlink.com 1.10,2013-01-18 07:49:00,
2013-01-18 02:04:00,26.3,24.0,30.55,SSE,154,0.0,0.0,89,0.00,,,0.00,weatherlink.com 1.10,2013-01-18 08:04:00,
2013-01-18 02:19:00,26.3,24.0,30.56,SSE,153,0.0,0.0,89,0.00,,,0.00,weatherlink.com 1.10,2013-01-18 08:19:00,
2013-01-18 02:34:00,25.8,23.0,30.55,SSE,153,0.0,0.0,88,0.00,,,0.00,weatherlink.com 1.10,2013-01-18 08:34:00,
2013-01-18 02:49:00,24.9,22.0,30.55,SSE,154,0.0,0.0,88,0.00,,,0.00,weatherlink.com 1.10,2013-01-18 08:49:00,
2013-01-18 03:04:00,24.7,22.0,30.54,SSE,154,0.0,0.0,90,0.00,,,0.00,weatherlink.com 1.10,2013-01-18 09:04:00,
2013-01-18 03:19:00,24.2,22.0,30.54,SSE,154,0.0,0.0,89,0.00,,,0.00,weatherlink.com 1.10,2013-01-18 09:19:00,
2013-01-18 03:34:00,24.2,22.0,30.54,SSE,153,0.0,0.0,91,0.00,,,0.00,weatherlink.com 1.10,2013-01-18 09:34:00,
2013-01-18 03:49:00,24.4,22.0,30.53,SSE,154,0.0,0.0,91,0.00,,,0.00,weatherlink.com 1.10,2013-01-18 09:49:00,
2013-01-18 04:04:00,24.2,22.0,30.53,SSE,153,0.0,0.0,91,0.00,,,0.00,weatherlink.com 1.10,2013-01-18 10:04:00,
2013-01-18 04:19:00,24.0,22.0,30.52,SSE,153,0.0,0.0,91,0.00,,,0.00,weatherlink.com 1.10,2013-01-18 10:19:00,
2013-01-18 04:34:00,24.0,22.0,30.52,SSE,153,0.0,0.0,92,0.00,,,0.00,weatherlink.com 1.10,2013-01-18 10:34:00,
2013-01-18 04:49:00,23.9,22.0,30.52,SSE,153,0.0,0.0,92,0.00,,,0.00,weatherlink.com 1.10,2013-01-18 10:49:00,
2013-01-18 05:04:00,24.0,22.0,30.51,South,181,0.0,0.0,93,0.00,,,0.00,weatherlink.com 1.10,2013-01-18 11:04:00,
2013-01-18 05:19:00,24.2,22.0,30.51,SSE,148,0.0,0.0,92,0.00,,,0.00,weatherlink.com 1.10,2013-01-18 11:19:00,
2013-01-18 05:35:00,24.2,23.0,30.50,South,176,0.0,0.0,93,0.00,,,0.00,weatherlink.com 1.10,2013-01-18 11:35:00,
2013-01-18 05:50:00,24.2,23.0,30.50,South,176,0.0,0.0,93,0.00,,,0.00,weatherlink.com 1.10,2013-01-18 11:50:00,
2013-01-18 06:05:00,23.8,22.0,30.51,South,176,0.0,0.0,93,0.00,,,0.00,weatherlink.com 1.10,2013-01-18 12:05:00,
2013-01-18 06:20:00,23.6,22.0,30.50,South,176,0.0,0.0,93,0.00,,,0.00,weatherlink.com 1.10,2013-01-18 12:20:00,
2013-01-18 06:35:00,23.4,22.0,30.50,SE,146,0.0,0.0,93,0.00,,,0.00,weatherlink.com 1.10,2013-01-18 12:35:00,
2013-01-18 06:50:00,22.5,21.0,30.50,SSE,147,0.0,0.0,92,0.00,,,0.00,weatherlink.com 1.10,2013-01-18 12:50:00,
2013-01-18 07:05:00,22.1,20.0,30.50,SE,146,0.0,0.0,93,0.00,,,0.00,weatherlink.com 1.10,2013-01-18 13:05:00,
2013-01-18 07:20:00,21.7,20.0,30.50,SE,146,0.0,0.0,93,0.00,,,0.00,weatherlink.com 1.10,2013-01-18 13:20:00,
2013-01-18 07:35:00,22.0,20.0,30.50,SE,146,0.0,0.0,93,0.00,,,0.00,weatherlink.com 1.10,2013-01-18 13:35:00,
2013-01-18 07:50:00,22.3,21.0,30.51,SE,146,0.0,0.0,93,0.00,,,0.00,weatherlink.com 1.10,2013-01-18 13:50:00,
2013-01-18 08:05:00,23.6,22.0,30.51,SSE,147,0.0,0.0,94,0.00,,,0.00,weatherlink.com 1.10,2013-01-18 14:05:00,
2013-01-18 08:20:00,23.7,22.0,30.51,SE,146,0.0,0.0,93,0.00,,,0.00,weatherlink.com 1.10,2013-01-18 14:20:00,
2013-01-18 08:35:00,27.4,26.0,30.51,SSE,147,0.0,0.0,95,0.00,,,0.00,weatherlink.com 1.10,2013-01-18 14:35:00,
2013-01-18 08:50:00,32.6,31.0,30.51,SE,127,1.0,2.0,95,0.00,,,0.00,weatherlink.com 1.10,2013-01-18 14:50:00,
2013-01-18 09:05:00,37.6,33.0,30.51,SSE,149,2.0,5.0,83,0.00,,,0.00,weatherlink.com 1.10,2013-01-18 15:05:00,
2013-01-18 09:20:00,40.7,33.0,30.52,SE,134,6.0,9.0,75,0.00,,,0.00,weatherlink.com 1.10,2013-01-18 15:20:00,
2013-01-18 09:35:00,42.5,33.0,30.52,SE,131,3.0,12.0,70,0.00,,,0.00,weatherlink.com 1.10,2013-01-18 15:35:00,
2013-01-18 09:50:00,44.3,34.0,30.52,SE,145,4.0,10.0,67,0.00,,,0.00,weatherlink.com 1.10,2013-01-18 15:50:00,
2013-01-18 10:05:00,45.8,34.0,30.52,South,180,2.0,13.0,63,0.00,,,0.00,weatherlink.com 1.10,2013-01-18 16:05:00,
2013-01-18 10:20:00,47.6,34.0,30.52,SSE,159,4.0,9.0,60,0.00,,,0.00,weatherlink.com 1.10,2013-01-18 16:20:00,
2013-01-18 10:35:00,48.7,34.0,30.52,SE,134,8.0,12.0,57,0.00,,,0.00,weatherlink.com 1.10,2013-01-18 16:35:00,
2013-01-18 10:50:00,49.5,34.0,30.51,SSE,152,8.0,13.0,55,0.00,,,0.00,weatherlink.com 1.10,2013-01-18 16:50:00,
2013-01-18 11:05:00,50.1,34.0,30.50,SE,137,11.0,17.0,54,0.00,,,0.00,weatherlink.com 1.10,2013-01-18 17:05:00,
2013-01-18 11:20:00,50.9,34.0,30.50,South,184,8.0,14.0,52,0.00,,,0.00,weatherlink.com 1.10,2013-01-18 17:20:00,
2013-01-18 11:36:00,52.1,33.0,30.48,SSE,162,7.0,15.0,49,0.00,,,0.00,weatherlink.com 1.10,2013-01-18 17:36:00,
2013-01-18 11:51:00,53.1,34.0,30.47,SW,221,6.0,13.0,48,0.00,,,0.00,weatherlink.com 1.10,2013-01-18 17:51:00,
2013-01-18 12:06:00,53.8,33.0,30.46,South,172,10.0,12.0,46,0.00,,,0.00,weatherlink.com 1.10,2013-01-18 18:06:00,
2013-01-18 12:21:00,54.4,33.0,30.45,South,183,7.0,13.0,45,0.00,,,0.00,weatherlink.com 1.10,2013-01-18 18:21:00,
2013-01-18 12:36:00,55.2,34.0,30.44,ESE,113,5.0,13.0,45,0.00,,,0.00,weatherlink.com 1.10,2013-01-18 18:36:00,
2013-01-18 12:51:00,56.2,34.0,30.43,SE,143,10.0,13.0,44,0.00,,,0.00,weatherlink.com 1.10,2013-01-18 18:51:00,
2013-01-18 13:06:00,56.5,33.0,30.42,SE,142,7.0,11.0,42,0.00,,,0.00,weatherlink.com 1.10,2013-01-18 19:06:00,
2013-01-18 13:21:00,57.1,33.0,30.41,South,191,4.0,12.0,41,0.00,,,0.00,weatherlink.com 1.10,2013-01-18 19:21:00,
2013-01-18 13:36:00,57.6,33.0,30.40,South,172,6.0,12.0,40,0.00,,,0.00,weatherlink.com 1.10,2013-01-18 19:36:00,
2013-01-18 13:51:00,58.2,34.0,30.39,SW,227,8.0,13.0,40,0.00,,,0.00,weatherlink.com 1.10,2013-01-18 19:51:00,
2013-01-18 14:06:00,58.1,33.0,30.38,SE,142,6.0,11.0,39,0.00,,,0.00,weatherlink.com 1.10,2013-01-18 20:06:00,
2013-01-18 14:21:00,58.6,33.0,30.38,SSE,148,7.0,13.0,38,0.00,,,0.00,weatherlink.com 1.10,2013-01-18 20:21:00,
2013-01-18 14:36:00,58.9,34.0,30.37,SE,139,9.0,12.0,39,0.00,,,0.00,weatherlink.com 1.10,2013-01-18 20:36:00,
2013-01-18 14:51:00,59.1,33.0,30.36,ESE,120,4.0,14.0,37,0.00,,,0.00,weatherlink.com 1.10,2013-01-18 20:51:00,
2013-01-18 15:06:00,59.4,32.0,30.36,SE,143,3.0,12.0,36,0.00,,,0.00,weatherlink.com 1.10,2013-01-18 21:06:00,
2013-01-18 15:21:00,59.7,33.0,30.35,ESE,102,7.0,11.0,36,0.00,,,0.00,weatherlink.com 1.10,2013-01-18 21:21:00,
2013-01-18 15:36:00,59.7,33.0,30.34,SSW,194,8.0,14.0,36,0.00,,,0.00,weatherlink.com 1.10,2013-01-18 21:36:00,
2013-01-18 15:51:00,59.7,33.0,30.33,SSE,158,5.0,10.0,36,0.00,,,0.00,weatherlink.com 1.10,2013-01-18 21:51:00,
2013-01-18 16:06:00,59.9,33.0,30.33,SE,139,5.0,14.0,36,0.00,,,0.00,weatherlink.com 1.10,2013-01-18 22:06:00,
2013-01-18 16:21:00,59.1,33.0,30.33,ESE,105,7.0,12.0,37,0.00,,,0.00,weatherlink.com 1.10,2013-01-18 22:21:00,
2013-01-18 16:36:00,58.7,33.0,30.33,SSE,163,3.0,14.0,38,0.00,,,0.00,weatherlink.com 1.10,2013-01-18 22:36:00,
2013-01-18 16:51:00,58.3,33.0,30.32,SE,146,8.0,13.0,38,0.00,,,0.00,weatherlink.com 1.10,2013-01-18 22:51:00,
2013-01-18 17:06:00,57.3,32.0,30.32,SSE,155,3.0,8.0,39,0.00,,,0.00,weatherlink.com 1.10,2013-01-18 23:06:00,
2013-01-18 17:21:00,56.4,32.0,30.32,SSE,152,5.0,13.0,40,0.00,,,0.00,weatherlink.com 1.10,2013-01-18 23:21:00,
2013-01-18 17:36:00,55.3,32.0,30.32,SE,137,4.0,9.0,42,0.00,,,0.00,weatherlink.com 1.10,2013-01-18 23:36:00,
2013-01-18 17:51:00,54.2,32.0,30.32,South,177,4.0,7.0,43,0.00,,,0.00,weatherlink.com 1.10,2013-01-18 23:51:00,
2013-01-18 18:07:00,53.2,32.0,30.32,SE,129,5.0,6.0,44,0.00,,,0.00,weatherlink.com 1.10,2013-01-19 00:07:00,
2013-01-18 18:22:00,52.0,32.0,30.31,SE,144,2.0,6.0,46,0.00,,,0.00,weatherlink.com 1.10,2013-01-19 00:22:00,
2013-01-18 18:37:00,51.2,32.0,30.32,SE,141,3.0,4.0,48,0.00,,,0.00,weatherlink.com 1.10,2013-01-19 00:37:00,
2013-01-18 18:52:00,50.3,32.0,30.32,SSE,150,2.0,5.0,49,0.00,,,0.00,weatherlink.com 1.10,2013-01-19 00:52:00,
2013-01-18 19:07:00,49.9,32.0,30.32,WSW,239,2.0,6.0,51,0.00,,,0.00,weatherlink.com 1.10,2013-01-19 01:07:00,
2013-01-18 19:22:00,49.6,32.0,30.31,SSE,164,1.0,6.0,52,0.00,,,0.00,weatherlink.com 1.10,2013-01-19 01:22:00,
2013-01-18 19:37:00,49.0,32.0,30.31,SSE,149,4.0,6.0,53,0.00,,,0.00,weatherlink.com 1.10,2013-01-19 01:37:00,
2013-01-18 19:52:00,48.4,32.0,30.31,South,183,4.0,7.0,54,0.00,,,0.00,weatherlink.com 1.10,2013-01-19 01:52:00,
2013-01-18 20:07:00,47.9,32.0,30.31,SE,138,4.0,6.0,55,0.00,,,0.00,weatherlink.com 1.10,2013-01-19 02:07:00,
2013-01-18 20:22:00,47.1,32.0,30.31,SSE,155,4.0,5.0,57,0.00,,,0.00,weatherlink.com 1.10,2013-01-19 02:22:00,
2013-01-18 20:37:00,46.8,33.0,30.30,SE,128,4.0,7.0,58,0.00,,,0.00,weatherlink.com 1.10,2013-01-19 02:37:00,
2013-01-18 20:52:00,47.0,33.0,30.30,ESE,122,5.0,7.0,58,0.00,,,0.00,weatherlink.com 1.10,2013-01-19 02:52:00,
2013-01-18 21:07:00,46.9,33.0,30.30,South,171,6.0,6.0,58,0.00,,,0.00,weatherlink.com 1.10,2013-01-19 03:07:00,
2013-01-18 21:22:00,46.3,32.0,30.30,SSE,150,2.0,7.0,59,0.00,,,0.00,weatherlink.com 1.10,2013-01-19 03:22:00,
2013-01-18 21:37:00,45.7,32.0,30.29,SSE,148,4.0,6.0,60,0.00,,,0.00,weatherlink.com 1.10,2013-01-19 03:37:00,
2013-01-18 21:52:00,45.6,33.0,30.29,South,179,2.0,7.0,61,0.00,,,0.00,weatherlink.com 1.10,2013-01-19 03:52:00,
2013-01-18 22:07:00,46.0,33.0,30.28,SW,235,9.0,9.0,62,0.00,,,0.00,weatherlink.com 1.10,2013-01-19 04:07:00,
2013-01-18 22:22:00,46.3,34.0,30.28,SSE,156,5.0,9.0,62,0.00,,,0.00,weatherlink.com 1.10,2013-01-19 04:22:00,
2013-01-18 22:37:00,46.2,34.0,30.28,South,177,1.0,10.0,62,0.00,,,0.00,weatherlink.com 1.10,2013-01-19 04:37:00,
2013-01-18 22:52:00,46.1,34.0,30.28,SSW,207,3.0,7.0,63,0.00,,,0.00,weatherlink.com 1.10,2013-01-19 04:52:00,
2013-01-18 23:07:00,45.8,34.0,30.27,SW,214,2.0,7.0,64,0.00,,,0.00,weatherlink.com 1.10,2013-01-19 05:07:00,
2013-01-18 23:22:00,45.5,34.0,30.27,SSE,156,7.0,7.0,65,0.00,,,0.00,weatherlink.com 1.10,2013-01-19 05:22:00,
2013-01-18 23:37:00,45.1,34.0,30.27,South,171,2.0,6.0,66,0.00,,,0.00,weatherlink.com 1.10,2013-01-19 05:37:00,
2013-01-18 23:52:00,44.7,34.0,30.27,SSW,210,1.0,5.0,67,0.00,,,0.00,weatherlink.com 1.10,2013-01-19 05:52:00,